Time;durP1;ratioP1;P1;durP2;ratioP2;P2;SDS_P1;SDS_P2;PMS_P1;PMS_P2;Temp;Humidity;BMP_temperature;BMP_pressure;BME280_temperature;BME280_humidity;BME280_pressure;Samples;Min_cycle;Max_cycle;Signal;HPM_P1;HPM_P2
2021/01/12 00:02:20;;;;;;;52.55;26.20;;;1.10;54.30;;;;;;5017172;28;20026;-75
2021/01/12 00:04:47;;;;;;;37.90;20.83;;;1.10;54.20;;;;;;5004442;28;20033;-75
2021/01/12 00:07:13;;;;;;;43.60;22.00;;;1.10;54.30;;;;;;5010468;28;20029;-75
2021/01/12 00:09:40;;;;;;;42.40;21.17;;;1.10;54.40;;;;;;5019320;28;20439;-74
2021/01/12 00:12:06;;;;;;;54.72;25.05;;;1.10;54.40;;;;;;5021138;28;20041;-75
2021/01/12 00:14:32;;;;;;;52.88;26.08;;;1.10;54.40;;;;;;5004153;28;20022;-76
2021/01/12 00:16:59;;;;;;;51.28;25.40;;;1.10;54.40;;;;;;5014345;28;20023;-75
2021/01/12 00:19:25;;;;;;;53.67;25.95;;;1.10;54.30;;;;;;5006862;28;20030;-75
2021/01/12 00:21:51;;;;;;;49.47;23.67;;;1.10;54.30;;;;;;5007733;28;20503;-75
2021/01/12 00:24:17;;;;;;;45.72;24.63;;;1.10;54.40;;;;;;5013311;28;20018;-76
2021/01/12 00:26:42;;;;;;;52.08;25.52;;;1.10;54.50;;;;;;5017558;28;20061;-77
2021/01/12 00:29:08;;;;;;;48.67;25.38;;;1.10;54.50;;;;;;5017648;28;20145;-76
2021/01/12 00:31:41;;;;;;;54.92;27.10;;;1.10;54.50;;;;;;5017811;28;20043;-78
2021/01/12 00:34:07;;;;;;;55.28;26.85;;;1.10;54.40;;;;;;5015675;28;20030;-76
2021/01/12 00:36:38;;;;;;;46.63;23.65;;;1.10;54.30;;;;;;5016592;28;20054;-77
2021/01/12 00:39:04;;;;;;;50.50;25.50;;;1.10;54.40;;;;;;5015554;28;20021;-77
2021/01/12 00:41:30;;;;;;;50.55;25.17;;;1.20;54.40;;;;;;5008320;28;20022;-76
2021/01/12 00:43:55;;;;;;;49.13;26.83;;;1.10;54.40;;;;;;5007376;28;20033;-76
2021/01/12 00:46:21;;;;;;;51.08;25.58;;;1.20;54.40;;;;;;5016640;28;20033;-76
2021/01/12 00:48:47;;;;;;;44.63;23.20;;;1.20;54.40;;;;;;5013812;28;20711;-76
2021/01/12 00:51:13;;;;;;;47.60;23.55;;;1.20;54.40;;;;;;5001888;28;20173;-77
2021/01/12 00:53:39;;;;;;;51.10;24.38;;;1.20;54.30;;;;;;5005504;28;20513;-76
2021/01/12 00:56:14;;;;;;;47.58;24.50;;;1.20;54.30;;;;;;5011601;28;20132;-76
2021/01/12 00:58:40;;;;;;;53.38;24.92;;;1.20;54.30;;;;;;5014873;28;20021;-77
2021/01/12 01:01:06;;;;;;;51.97;25.30;;;1.20;54.30;;;;;;5002039;28;20061;-76
2021/01/12 01:03:32;;;;;;;46.15;23.83;;;1.20;54.30;;;;;;5007486;28;20357;-76
2021/01/12 01:05:58;;;;;;;53.40;26.38;;;1.20;54.40;;;;;;5009130;28;20041;-76
2021/01/12 01:08:24;;;;;;;52.10;24.90;;;1.20;54.30;;;;;;5016285;28;20026;-76
2021/01/12 01:10:50;;;;;;;48.25;23.35;;;1.20;54.20;;;;;;5011809;28;20031;-76
2021/01/12 01:13:16;;;;;;;45.13;22.77;;;1.20;54.20;;;;;;5001882;28;20486;-77
2021/01/12 01:15:42;;;;;;;52.63;25.83;;;1.20;54.30;;;;;;5015760;28;20033;-77
2021/01/12 01:18:07;;;;;;;48.38;24.63;;;1.30;54.40;;;;;;5016031;28;20026;-77
2021/01/12 01:20:33;;;;;;;47.42;22.83;;;1.30;54.40;;;;;;5015012;28;20045;-78
2021/01/12 01:22:59;;;;;;;59.17;28.55;;;1.30;54.40;;;;;;5001112;28;20026;-76
2021/01/12 01:25:24;;;;;;;45.53;23.38;;;1.30;54.40;;;;;;5015919;28;20026;-76
2021/01/12 01:27:50;;;;;;;54.55;27.77;;;1.30;54.40;;;;;;5004545;28;20142;-76
2021/01/12 01:30:17;;;;;;;51.30;25.45;;;1.30;54.30;;;;;;5010951;28;20049;-75
2021/01/12 01:32:44;;;;;;;47.25;24.48;;;1.30;54.30;;;;;;5029680;28;20022;-76
2021/01/12 01:35:10;;;;;;;54.33;24.98;;;1.30;54.30;;;;;;5015716;28;20037;-76
2021/01/12 01:37:37;;;;;;;54.15;26.17;;;1.30;54.30;;;;;;5013607;28;20394;-76
2021/01/12 01:40:05;;;;;;;51.20;25.05;;;1.30;54.20;;;;;;5015243;28;20025;-76
2021/01/12 01:42:31;;;;;;;54.33;28.23;;;1.30;54.30;;;;;;5013743;28;20092;-76
2021/01/12 01:44:58;;;;;;;58.63;26.65;;;1.30;54.20;;;;;;4999953;28;20022;-76
2021/01/12 01:47:24;;;;;;;47.60;24.23;;;1.30;54.20;;;;;;5014646;28;20109;-77
2021/01/12 01:49:50;;;;;;;58.95;27.60;;;1.30;54.30;;;;;;5015263;28;20030;-77
2021/01/12 01:52:16;;;;;;;60.40;28.75;;;1.40;54.40;;;;;;5015368;28;20026;-76
2021/01/12 01:54:43;;;;;;;51.33;25.50;;;1.40;54.40;;;;;;5013194;28;20037;-76
2021/01/12 01:57:09;;;;;;;53.35;25.10;;;1.40;54.40;;;;;;5001333;28;20018;-76
2021/01/12 01:59:34;;;;;;;65.05;29.83;;;1.40;54.40;;;;;;5006078;28;20395;-76
2021/01/12 02:02:00;;;;;;;63.45;28.45;;;1.40;54.40;;;;;;5009000;28;20026;-76
2021/01/12 02:04:39;;;;;;;61.08;28.55;;;1.40;54.30;;;;;;4999393;28;20026;-77
2021/01/12 02:07:08;;;;;;;66.55;29.92;;;1.40;54.30;;;;;;5008915;28;20137;-76
2021/01/12 02:09:42;;;;;;;53.63;26.50;;;1.40;54.30;;;;;;5004820;28;20546;-76
2021/01/12 02:12:16;;;;;;;59.78;28.80;;;1.40;54.30;;;;;;5013767;28;20033;-76
2021/01/12 02:14:45;;;;;;;66.53;30.30;;;1.40;54.30;;;;;;4997494;28;20027;-76
2021/01/12 02:17:11;;;;;;;64.70;31.80;;;1.40;54.30;;;;;;5009062;28;20018;-77
2021/01/12 02:19:38;;;;;;;63.83;30.02;;;1.40;54.30;;;;;;5004466;28;20513;-77
2021/01/12 02:22:06;;;;;;;58.60;28.40;;;1.40;54.40;;;;;;5014296;28;20018;-76
2021/01/12 02:24:34;;;;;;;70.80;30.58;;;1.40;54.40;;;;;;5014814;28;20090;-76
2021/01/12 02:27:00;;;;;;;53.53;26.35;;;1.40;54.40;;;;;;5013417;28;20104;-76
2021/01/12 02:29:26;;;;;;;57.55;28.63;;;1.40;54.40;;;;;;5014187;28;20534;-76
2021/01/12 02:31:52;;;;;;;67.40;30.60;;;1.40;54.30;;;;;;5013113;28;20121;-77
2021/01/12 02:34:19;;;;;;;67.72;31.67;;;1.50;54.40;;;;;;5014813;28;20054;-77
2021/01/12 02:36:46;;;;;;;65.20;30.70;;;1.50;54.90;;;;;;4998435;28;20030;-76
2021/01/12 02:39:13;;;;;;;74.90;35.55;;;1.50;54.40;;;;;;5013376;28;20084;-76
2021/01/12 02:41:39;;;;;;;72.00;32.22;;;1.40;54.30;;;;;;5026334;28;20022;-75
2021/01/12 02:44:06;;;;;;;67.93;31.30;;;1.40;54.40;;;;;;5008158;28;20099;-75
2021/01/12 02:46:32;;;;;;;69.88;30.45;;;1.40;54.30;;;;;;5012906;28;20068;-76
2021/01/12 02:48:59;;;;;;;64.18;29.45;;;1.40;54.30;;;;;;5014436;28;20033;-75
2021/01/12 02:51:25;;;;;;;74.97;34.28;;;1.40;54.40;;;;;;5006512;28;20113;-76
2021/01/12 02:53:51;;;;;;;61.55;28.98;;;1.40;54.40;;;;;;5005925;28;20476;-76
2021/01/12 02:56:24;;;;;;;60.67;27.02;;;1.40;54.50;;;;;;4999537;28;20054;-77
2021/01/12 02:58:53;;;;;;;73.50;32.47;;;1.40;54.70;;;;;;5010746;28;20457;-76
2021/01/12 03:01:20;;;;;;;64.80;30.42;;;1.40;54.60;;;;;;5003311;28;20030;-76
2021/01/12 03:03:46;;;;;;;68.95;32.33;;;1.40;54.60;;;;;;5003406;28;20030;-76
2021/01/12 03:06:11;;;;;;;63.53;29.00;;;1.40;54.60;;;;;;5008658;28;20462;-76
2021/01/12 03:08:37;;;;;;;68.47;32.15;;;1.40;54.60;;;;;;4999375;28;20390;-76
2021/01/12 03:11:03;;;;;;;62.38;29.15;;;1.40;54.60;;;;;;5014019;28;20025;-76
2021/01/12 03:13:28;;;;;;;68.03;30.45;;;1.40;54.70;;;;;;5005626;28;20081;-76
2021/01/12 03:15:54;;;;;;;65.35;28.63;;;1.40;54.70;;;;;;5005659;28;20511;-75
2021/01/12 03:18:20;;;;;;;66.18;29.15;;;1.40;54.70;;;;;;5013966;28;20025;-76
2021/01/12 03:20:45;;;;;;;69.85;30.50;;;1.40;54.70;;;;;;5011091;28;20049;-75
2021/01/12 03:23:11;;;;;;;64.70;28.83;;;1.40;54.60;;;;;;5000163;28;20140;-76
2021/01/12 03:25:37;;;;;;;67.05;30.70;;;1.40;54.50;;;;;;5007785;28;20040;-76
2021/01/12 03:28:03;;;;;;;67.60;30.70;;;1.30;54.40;;;;;;5010008;28;20022;-76
2021/01/12 03:30:29;;;;;;;64.53;27.90;;;1.30;54.50;;;;;;5012418;28;20442;-75
2021/01/12 03:32:55;;;;;;;57.20;27.48;;;1.30;54.60;;;;;;5009898;28;20503;-76
2021/01/12 03:35:21;;;;;;;70.13;29.45;;;1.30;54.70;;;;;;5008589;28;20033;-76
2021/01/12 03:37:48;;;;;;;60.95;26.98;;;1.30;54.80;;;;;;5007558;28;20467;-76
2021/01/12 03:40:14;;;;;;;74.15;30.98;;;1.30;54.80;;;;;;5008130;28;20034;-76
2021/01/12 03:42:40;;;;;;;62.75;28.58;;;1.30;54.80;;;;;;5011050;28;20096;-76
2021/01/12 03:45:07;;;;;;;62.15;28.00;;;1.40;54.80;;;;;;5007263;28;20095;-76
2021/01/12 03:47:33;;;;;;;64.32;30.35;;;1.40;54.80;;;;;;5008637;28;20141;-76
2021/01/12 03:49:59;;;;;;;71.30;31.00;;;1.40;54.80;;;;;;5009928;28;20092;-76
2021/01/12 03:52:26;;;;;;;66.65;28.88;;;1.40;54.80;;;;;;5027605;28;20034;-75
2021/01/12 03:54:51;;;;;;;70.80;32.85;;;1.40;54.80;;;;;;5007947;28;20177;-76
2021/01/12 03:57:17;;;;;;;65.13;28.08;;;1.40;54.80;;;;;;5006899;28;20627;-75
2021/01/12 03:59:43;;;;;;;62.47;30.27;;;1.40;54.80;;;;;;5011315;28;20022;-76
2021/01/12 04:02:09;;;;;;;75.50;34.05;;;1.40;54.80;;;;;;5012190;28;20108;-76
2021/01/12 04:04:35;;;;;;;67.07;29.77;;;1.40;54.80;;;;;;5012412;28;20080;-76
2021/01/12 04:07:00;;;;;;;66.47;31.10;;;1.40;54.70;;;;;;5011208;28;20105;-75
2021/01/12 04:09:26;;;;;;;67.55;30.70;;;1.40;54.70;;;;;;5009503;28;20018;-76
2021/01/12 04:11:52;;;;;;;66.63;30.40;;;1.40;54.60;;;;;;5009896;28;20033;-76
2021/01/12 04:14:18;;;;;;;74.18;33.45;;;1.40;54.70;;;;;;5011657;28;20026;-75
2021/01/12 04:16:44;;;;;;;69.38;30.85;;;1.30;54.60;;;;;;5005744;28;20061;-76
2021/01/12 04:19:10;;;;;;;73.05;32.58;;;1.30;54.60;;;;;;4998611;28;20054;-76
2021/01/12 04:21:36;;;;;;;62.97;29.83;;;1.30;54.70;;;;;;5011975;28;20073;-76
2021/01/12 04:24:02;;;;;;;68.45;31.38;;;1.30;54.70;;;;;;5027448;28;20066;-76
2021/01/12 04:26:28;;;;;;;67.63;30.17;;;1.30;54.80;;;;;;5012147;28;20037;-76
2021/01/12 04:28:54;;;;;;;78.97;33.00;;;1.30;54.80;;;;;;5011970;28;20475;-76
2021/01/12 04:31:19;;;;;;;72.88;33.38;;;1.20;54.80;;;;;;5010270;28;20160;-76
2021/01/12 04:33:45;;;;;;;85.97;36.17;;;1.30;54.80;;;;;;5011034;28;20096;-76
2021/01/12 04:36:11;;;;;;;78.95;34.42;;;1.20;54.80;;;;;;5009585;28;20038;-76
2021/01/12 04:38:36;;;;;;;77.85;33.33;;;1.20;54.80;;;;;;5011910;28;20379;-77
2021/01/12 04:41:02;;;;;;;72.38;32.28;;;1.20;54.90;;;;;;5026462;28;20112;-76
2021/01/12 04:43:28;;;;;;;64.97;29.83;;;1.20;55.00;;;;;;5012218;28;20018;-76
2021/01/12 04:45:54;;;;;;;62.22;28.13;;;1.20;55.00;;;;;;5000427;28;20045;-77
2021/01/12 04:48:19;;;;;;;61.53;28.33;;;1.20;55.00;;;;;;5007557;28;20026;-77
2021/01/12 04:50:45;;;;;;;77.65;32.58;;;1.20;55.00;;;;;;5010680;28;20037;-76
2021/01/12 04:53:11;;;;;;;71.20;31.83;;;1.30;55.10;;;;;;5007410;28;20031;-76
2021/01/12 04:55:43;;;;;;;77.00;32.90;;;1.20;55.00;;;;;;5015530;28;20022;-76
2021/01/12 04:58:09;;;;;;;71.13;28.25;;;1.20;55.10;;;;;;5015675;28;20022;-76
2021/01/12 05:00:37;;;;;;;72.78;31.42;;;1.20;55.20;;;;;;5001582;28;20032;-76
2021/01/12 05:03:07;;;;;;;74.43;31.58;;;1.20;55.10;;;;;;5015899;28;20049;-77
2021/01/12 05:05:38;;;;;;;78.20;33.08;;;1.20;55.10;;;;;;5014977;28;20080;-77
2021/01/12 05:08:13;;;;;;;79.18;34.15;;;1.20;55.10;;;;;;5002303;28;20058;-77
2021/01/12 05:10:43;;;;;;;73.07;30.90;;;1.20;55.10;;;;;;5014820;28;20053;-77
2021/01/12 05:13:13;;;;;;;76.65;34.17;;;1.10;55.10;;;;;;5014968;28;20057;-76
2021/01/12 05:15:47;;;;;;;70.35;30.80;;;1.10;55.10;;;;;;5013784;28;20083;-77
2021/01/12 05:18:16;;;;;;;;;;;1.10;55.20;;;;;;5039770;28;20025;-77
2021/01/12 05:20:49;;;;;;;62.90;28.23;;;1.10;55.20;;;;;;5014333;28;19968;-76
2021/01/12 05:23:23;;;;;;;68.25;29.85;;;1.10;55.10;;;;;;5000766;28;20054;-76
2021/01/12 05:25:53;;;;;;;77.13;32.90;;;1.10;55.10;;;;;;5014461;28;20392;-77
2021/01/12 05:28:20;;;;;;;77.82;31.80;;;1.10;55.10;;;;;;5010659;28;20084;-76
2021/01/12 05:30:48;;;;;;;69.55;31.08;;;1.10;55.10;;;;;;5013262;28;20120;-76
2021/01/12 05:33:18;;;;;;;73.00;31.42;;;1.10;55.10;;;;;;5012902;28;20514;-76
2021/01/12 05:35:46;;;;;;;67.00;30.08;;;1.00;55.10;;;;;;5013211;28;20037;-76
2021/01/12 05:38:29;;;;;;;74.13;31.85;;;1.00;55.10;;;;;;5013210;28;20026;-76
2021/01/12 05:40:57;;;;;;;66.18;27.75;;;1.00;55.20;;;;;;5014593;28;20049;-76
2021/01/12 05:43:33;;;;;;;71.55;32.25;;;1.00;55.30;;;;;;5013543;28;20026;-76
2021/01/12 05:46:11;;;;;;;79.63;33.45;;;1.00;55.20;;;;;;5016548;28;20026;-76
2021/01/12 05:48:39;;;;;;;74.40;32.33;;;1.00;55.30;;;;;;5016194;28;20053;-76
2021/01/12 05:51:08;;;;;;;71.28;31.52;;;0.90;55.30;;;;;;5015119;28;20033;-75
2021/01/12 05:53:42;;;;;;;83.22;37.45;;;0.90;55.30;;;;;;5014128;28;20423;-76
2021/01/12 05:56:23;;;;;;;70.80;32.72;;;0.90;55.40;;;;;;5001767;28;20055;-75
2021/01/12 05:58:51;;;;;;;73.93;33.17;;;0.90;55.40;;;;;;5013873;28;20026;-76
2021/01/12 06:01:37;;;;;;;85.43;36.38;;;0.90;55.40;;;;;;5015027;28;20022;-76
2021/01/12 06:04:09;;;;;;;79.43;34.13;;;0.80;55.40;;;;;;5014599;28;20117;-76
2021/01/12 06:06:42;;;;;;;69.20;32.08;;;0.80;55.30;;;;;;5013124;28;20089;-76
2021/01/12 06:09:08;;;;;;;80.28;33.10;;;0.80;55.40;;;;;;5014091;28;20026;-75
2021/01/12 06:11:36;;;;;;;81.57;35.45;;;0.80;55.40;;;;;;5015025;28;20025;-76
2021/01/12 06:14:15;;;;;;;76.57;35.40;;;0.70;55.40;;;;;;5011811;28;20080;-76
2021/01/12 06:16:45;;;;;;;86.57;34.53;;;0.70;55.40;;;;;;5013152;28;20380;-76
2021/01/12 06:19:19;;;;;;;64.53;31.27;;;0.70;55.50;;;;;;5003002;28;20022;-76
2021/01/12 06:21:54;;;;;;;72.07;32.35;;;0.60;55.50;;;;;;5014979;28;20045;-76
2021/01/12 06:24:38;;;;;;;72.78;33.67;;;0.60;55.60;;;;;;5013810;28;20097;-75
2021/01/12 06:27:14;;;;;;;;;;;0.60;55.70;;;;;;5014929;28;20494;-75
2021/01/12 06:29:42;;;;;;;72.07;31.00;;;0.60;55.60;;;;;;5014381;28;20024;-75
2021/01/12 06:32:08;;;;;;;71.70;32.92;;;0.60;55.70;;;;;;5014595;28;20026;-75
2021/01/12 06:34:34;;;;;;;68.47;30.15;;;0.60;55.70;;;;;;5014418;28;20026;-76
2021/01/12 06:37:03;;;;;;;78.78;32.38;;;0.60;55.70;;;;;;5014313;28;20053;-76
2021/01/12 06:39:41;;;;;;;63.95;28.65;;;0.60;55.80;;;;;;5014546;28;20371;-76
2021/01/12 06:42:08;;;;;;;72.25;32.30;;;0.60;55.90;;;;;;5013287;28;20026;-76
2021/01/12 06:44:35;;;;;;;72.78;30.58;;;0.70;55.90;;;;;;5027208;28;20541;-76
2021/01/12 06:47:07;;;;;;;63.58;28.60;;;0.70;55.90;;;;;;5014306;28;20045;-75
2021/01/12 06:49:34;;;;;;;57.03;26.98;;;0.70;55.90;;;;;;5014098;28;20029;-75
2021/01/12 06:52:10;;;;;;;65.50;31.58;;;0.70;55.80;;;;;;5000390;28;20510;-76
2021/01/12 06:54:46;;;;;;;64.13;29.33;;;0.70;55.80;;;;;;5009874;28;20383;-77
2021/01/12 06:57:14;;;;;;;69.90;30.23;;;0.70;55.80;;;;;;5005387;28;20022;-76
2021/01/12 06:59:42;;;;;;;67.28;29.17;;;0.80;55.80;;;;;;5014235;28;20053;-76
2021/01/12 07:02:17;;;;;;;66.20;26.52;;;0.70;55.70;;;;;;5008106;28;20022;-76
2021/01/12 07:05:05;;;;;;;75.25;32.40;;;0.80;55.80;;;;;;5013795;28;20368;-77
2021/01/12 07:07:41;;;;;;;76.85;32.53;;;0.80;55.70;;;;;;5010932;28;20489;-76
2021/01/12 07:10:10;;;;;;;69.35;30.23;;;0.80;55.60;;;;;;5014332;28;20030;-77
2021/01/12 07:12:36;;;;;;;67.28;30.95;;;0.80;55.50;;;;;;5010944;28;20029;-77
2021/01/12 07:15:09;;;;;;;71.40;31.00;;;0.70;55.40;;;;;;5000395;28;20026;-76
2021/01/12 07:17:48;;;;;;;73.53;32.67;;;0.70;55.40;;;;;;5013398;28;20101;-77
2021/01/12 07:20:15;;;;;;;67.10;31.75;;;0.60;55.30;;;;;;5011918;28;20046;-77
2021/01/12 07:23:00;;;;;;;64.93;27.38;;;0.60;55.40;;;;;;5010504;28;20033;-76
2021/01/12 07:25:34;;;;;;;71.43;30.55;;;0.50;55.40;;;;;;5011496;28;20384;-77
2021/01/12 07:28:15;;;;;;;68.60;30.30;;;0.50;55.50;;;;;;5011276;28;20030;-76
2021/01/12 07:30:43;;;;;;;64.78;29.15;;;0.50;55.50;;;;;;5013378;28;20075;-76
2021/01/12 07:33:19;;;;;;;68.10;30.83;;;0.40;55.50;;;;;;5012288;28;20061;-76
2021/01/12 07:35:53;;;;;;;73.88;32.65;;;0.40;55.70;;;;;;5015973;28;20048;-75
2021/01/12 07:38:45;;;;;;;73.03;30.40;;;0.40;55.90;;;;;;5013474;28;20022;-77
2021/01/12 07:41:15;;;;;;;60.92;28.42;;;0.30;56.00;;;;;;5005679;28;20037;-77
2021/01/12 07:43:42;;;;;;;56.55;25.63;;;0.40;56.00;;;;;;5010463;28;20029;-76
2021/01/12 07:46:08;;;;;;;73.70;33.05;;;0.30;56.10;;;;;;5007480;28;20105;-77
2021/01/12 07:48:34;;;;;;;69.82;30.63;;;0.30;56.30;;;;;;5013228;28;20125;-77
2021/01/12 07:51:02;;;;;;;63.95;28.02;;;0.30;56.40;;;;;;5013009;28;20029;-77
2021/01/12 07:53:33;;;;;;;61.83;28.02;;;0.40;56.50;;;;;;5012985;28;20022;-78
2021/01/12 07:56:00;;;;;;;64.78;28.67;;;0.40;56.50;;;;;;5012922;28;20037;-76
2021/01/12 07:58:27;;;;;;;63.92;29.38;;;0.40;56.50;;;;;;5013936;28;20423;-77
2021/01/12 08:00:53;;;;;;;73.05;30.67;;;0.40;56.50;;;;;;4996972;28;20375;-76
2021/01/12 08:03:28;;;;;;;67.55;29.80;;;0.50;56.60;;;;;;5013102;28;20026;-77
2021/01/12 08:06:00;;;;;;;68.60;29.85;;;0.50;56.70;;;;;;5012694;28;20025;-77
2021/01/12 08:08:26;;;;;;;72.65;31.08;;;0.60;56.70;;;;;;5010349;28;20029;-76
2021/01/12 08:10:52;;;;;;;80.80;33.42;;;0.60;56.80;;;;;;4997041;28;20026;-77
2021/01/12 08:13:18;;;;;;;77.55;34.83;;;0.70;56.90;;;;;;5013345;28;20530;-77
2021/01/12 08:15:44;;;;;;;76.70;33.53;;;0.70;57.10;;;;;;5011241;28;20033;-76
2021/01/12 08:18:15;;;;;;;75.97;32.97;;;0.90;57.20;;;;;;5012917;28;20519;-77
2021/01/12 08:20:43;;;;;;;79.93;34.17;;;1.00;57.20;;;;;;5011187;28;20042;-78
2021/01/12 08:23:16;;;;;;;79.72;35.03;;;1.10;57.00;;;;;;5010738;28;20427;-77
2021/01/12 08:25:42;;;;;;;70.05;31.50;;;1.30;56.90;;;;;;5012330;28;20448;-76
2021/01/12 08:28:09;;;;;;;74.10;32.70;;;1.50;56.70;;;;;;5008965;28;20058;-77
2021/01/12 08:30:36;;;;;;;67.97;31.13;;;1.60;56.50;;;;;;5015792;28;20028;-77
2021/01/12 08:33:21;;;;;;;79.50;35.63;;;1.70;56.40;;;;;;5015341;28;20034;-77
2021/01/12 08:35:52;;;;;;;;;;;1.90;56.10;;;;;;5029187;28;20026;-77
2021/01/12 08:38:22;;;;;;;87.75;33.75;;;2.00;56.20;;;;;;5023497;28;19933;-77
2021/01/12 08:40:49;;;;;;;72.95;34.40;;;2.10;55.70;;;;;;5015387;28;20014;-77
2021/01/12 08:43:19;;;;;;;84.20;32.55;;;2.20;55.30;;;;;;5015501;28;20026;-77
2021/01/12 08:45:46;;;;;;;77.32;34.80;;;2.40;55.10;;;;;;5027568;28;20114;-76
2021/01/12 08:48:16;;;;;;;78.10;33.08;;;2.50;55.00;;;;;;5012467;28;20040;-77
2021/01/12 08:50:46;;;;;;;77.93;35.13;;;2.60;54.90;;;;;;5014617;28;20041;-77
2021/01/12 08:53:19;;;;;;;81.80;34.83;;;2.70;54.50;;;;;;5016054;28;20022;-78
2021/01/12 08:55:45;;;;;;;63.88;30.30;;;2.80;54.60;;;;;;5004136;28;20456;-78
2021/01/12 08:58:11;;;;;;;91.82;34.22;;;2.90;54.70;;;;;;5009797;28;20026;-76
2021/01/12 09:00:38;;;;;;;88.60;40.03;;;3.00;54.50;;;;;;5014867;28;20056;-77
2021/01/12 09:03:06;;;;;;;100.57;40.45;;;3.10;54.30;;;;;;5012508;28;20426;-77
2021/01/12 09:05:42;;;;;;;93.28;37.90;;;3.20;54.20;;;;;;5026980;28;20092;-77
2021/01/12 09:08:15;;;;;;;118.20;39.75;;;3.40;54.10;;;;;;5009498;28;20034;-77
2021/01/12 09:10:41;;;;;;;86.57;39.72;;;3.50;53.80;;;;;;5015334;28;20025;-77
2021/01/12 09:13:08;;;;;;;94.55;38.97;;;3.60;53.60;;;;;;5015302;28;20030;-77
2021/01/12 09:15:41;;;;;;;83.25;38.42;;;3.70;53.70;;;;;;5015321;28;20033;-77
2021/01/12 09:18:21;;;;;;;86.40;35.50;;;3.80;53.30;;;;;;5015297;28;20029;-76
2021/01/12 09:20:59;;;;;;;76.70;36.35;;;3.90;52.70;;;;;;5014325;28;20068;-77
2021/01/12 09:23:26;;;;;;;78.22;35.17;;;4.00;52.50;;;;;;5014834;28;20053;-77
2021/01/12 09:26:02;;;;;;;71.00;32.17;;;4.00;52.30;;;;;;5027166;28;20462;-77
2021/01/12 09:28:35;;;;;;;90.65;37.38;;;4.10;52.30;;;;;;5011802;28;20457;-77
2021/01/12 09:31:21;;;;;;;79.55;35.03;;;4.20;51.80;;;;;;5014540;28;20033;-77
2021/01/12 09:33:52;;;;;;;78.20;35.55;;;4.20;51.40;;;;;;5034461;28;20029;-77
2021/01/12 09:36:20;;;;;;;80.75;34.10;;;4.20;51.40;;;;;;5015091;28;20018;-77
2021/01/12 09:38:46;;;;;;;75.30;32.85;;;4.20;51.40;;;;;;5014293;28;20021;-76
2021/01/12 09:41:13;;;;;;;74.15;33.75;;;4.30;51.60;;;;;;5008716;28;20085;-77
2021/01/12 09:43:39;;;;;;;89.05;36.33;;;4.30;51.60;;;;;;5009169;28;20022;-77
2021/01/12 09:46:06;;;;;;;89.43;33.38;;;4.40;51.30;;;;;;5014824;28;20057;-77
2021/01/12 09:48:32;;;;;;;90.85;35.70;;;4.40;51.20;;;;;;5014232;28;20049;-77
2021/01/12 09:50:58;;;;;;;83.97;36.97;;;4.50;51.40;;;;;;5007997;28;20124;-76
2021/01/12 09:53:24;;;;;;;73.85;34.33;;;4.50;51.30;;;;;;5013413;28;20050;-77
2021/01/12 09:55:50;;;;;;;77.68;36.00;;;4.60;51.00;;;;;;5013096;28;20386;-77
2021/01/12 09:58:16;;;;;;;69.43;33.55;;;4.60;50.70;;;;;;5029705;28;20525;-78
2021/01/12 10:00:42;;;;;;;71.68;35.00;;;4.60;50.70;;;;;;5013337;28;20091;-78
2021/01/12 10:03:08;;;;;;;80.72;35.50;;;4.70;50.80;;;;;;5007783;28;20452;-77
2021/01/12 10:05:37;;;;;;;94.20;35.50;;;4.70;50.70;;;;;;5003880;28;20411;-77
2021/01/12 10:08:03;;;;;;;79.75;37.25;;;4.70;50.50;;;;;;5014191;28;20114;-77
2021/01/12 10:10:29;;;;;;;82.72;36.95;;;4.80;50.30;;;;;;5013099;28;20030;-77
2021/01/12 10:12:55;;;;;;;77.53;35.05;;;4.80;50.20;;;;;;5014136;28;20056;-78
2021/01/12 10:15:21;;;;;;;85.22;37.83;;;4.80;50.20;;;;;;5014751;28;20379;-77
2021/01/12 10:17:47;;;;;;;109.57;38.80;;;4.80;50.00;;;;;;5007747;28;20490;-77
2021/01/12 10:20:13;;;;;;;82.90;38.60;;;4.80;49.90;;;;;;5011937;28;20072;-76
2021/01/12 10:22:38;;;;;;;81.00;37.40;;;4.80;50.10;;;;;;5013868;28;20382;-76
2021/01/12 10:25:05;;;;;;;77.10;35.40;;;4.70;50.10;;;;;;5006267;28;20022;-76
2021/01/12 10:27:38;;;;;;;70.32;34.05;;;4.70;50.10;;;;;;5013920;28;20148;-77
2021/01/12 10:30:05;;;;;;;68.32;33.22;;;4.70;50.10;;;;;;5025916;28;20026;-77
2021/01/12 10:32:31;;;;;;;78.45;34.40;;;4.80;50.50;;;;;;5011065;28;20502;-77
2021/01/12 10:34:57;;;;;;;72.18;33.80;;;4.80;50.60;;;;;;5013235;28;20049;-77
2021/01/12 10:37:23;;;;;;;76.95;34.80;;;4.80;50.70;;;;;;5013327;28;20053;-76
2021/01/12 10:39:48;;;;;;;74.22;34.08;;;4.90;50.80;;;;;;5013744;28;20022;-77
2021/01/12 10:42:14;;;;;;;69.47;33.67;;;4.90;50.70;;;;;;5012192;28;20021;-76
2021/01/12 10:44:40;;;;;;;77.57;35.20;;;4.90;50.50;;;;;;5013606;28;20025;-77
2021/01/12 10:47:05;;;;;;;87.82;36.78;;;5.00;50.50;;;;;;5013351;28;20045;-76
2021/01/12 10:49:31;;;;;;;79.57;36.22;;;5.00;50.60;;;;;;5012846;28;20383;-76
2021/01/12 10:51:58;;;;;;;87.13;38.08;;;5.10;50.60;;;;;;5013137;28;20022;-76
2021/01/12 10:54:24;;;;;;;84.95;36.83;;;5.10;50.60;;;;;;5012545;28;20029;-76
2021/01/12 10:56:50;;;;;;;104.60;38.13;;;5.20;50.50;;;;;;5013006;28;20026;-75
2021/01/12 10:59:15;;;;;;;84.93;37.28;;;5.20;50.20;;;;;;5009453;28;20479;-77
2021/01/12 11:01:41;;;;;;;73.43;33.38;;;5.30;50.10;;;;;;5028353;28;20026;-78
2021/01/12 11:04:07;;;;;;;83.97;36.47;;;5.30;50.20;;;;;;5013323;28;20452;-78
2021/01/12 11:06:36;;;;;;;88.28;35.10;;;5.30;50.30;;;;;;5010032;28;20506;-78
2021/01/12 11:09:03;;;;;;;84.20;38.58;;;5.40;50.20;;;;;;5006809;28;20045;-79
2021/01/12 11:11:34;;;;;;;80.97;36.55;;;5.40;50.00;;;;;;5012215;28;20076;-79
2021/01/12 11:14:03;;;;;;;77.13;36.97;;;5.50;50.10;;;;;;5013171;28;20025;-77
2021/01/12 11:16:39;;;;;;;89.53;41.00;;;5.50;50.10;;;;;;5011777;28;20021;-78
2021/01/12 11:19:07;;;;;;;84.32;39.33;;;5.40;50.00;;;;;;5013236;28;20026;-79
2021/01/12 11:21:49;;;;;;;92.00;42.55;;;5.40;50.20;;;;;;5013332;28;20042;-78
2021/01/12 11:24:23;;;;;;;92.07;39.90;;;5.40;50.10;;;;;;5013624;28;20030;-79
2021/01/12 11:26:49;;;;;;;81.57;35.20;;;5.40;50.40;;;;;;5013807;28;20467;-77
2021/01/12 11:29:15;;;;;;;71.38;34.40;;;5.30;50.50;;;;;;5012210;28;20037;-77
2021/01/12 11:31:41;;;;;;;77.80;36.90;;;5.30;50.70;;;;;;5012447;28;20021;-77
2021/01/12 11:34:08;;;;;;;83.63;38.10;;;5.30;51.10;;;;;;5013279;28;20105;-76
2021/01/12 11:36:35;;;;;;;90.68;41.65;;;5.40;51.30;;;;;;5012933;28;20142;-76
2021/01/12 11:39:03;;;;;;;90.40;42.60;;;5.40;51.30;;;;;;5024908;28;20368;-76
2021/01/12 11:41:29;;;;;;;77.63;36.47;;;5.40;51.70;;;;;;5006460;28;20085;-76
2021/01/12 11:43:55;;;;;;;79.35;38.13;;;5.50;52.20;;;;;;5012058;28;20037;-76
2021/01/12 11:46:28;;;;;;;76.00;35.95;;;5.50;52.30;;;;;;5013673;28;20029;-76
2021/01/12 11:48:55;;;;;;;82.63;37.40;;;5.50;51.90;;;;;;5013612;28;20426;-81
2021/01/12 11:51:21;;;;;;;87.70;37.70;;;5.50;51.90;;;;;;5013577;28;20026;-81
2021/01/12 11:53:51;;;;;;;87.53;37.42;;;5.50;51.80;;;;;;5013616;28;20026;-82
2021/01/12 11:56:19;;;;;;;75.75;37.05;;;5.50;51.70;;;;;;5012565;28;20026;-81
2021/01/12 11:58:45;;;;;;;80.82;37.88;;;5.60;51.80;;;;;;5012035;28;20036;-81
2021/01/12 12:01:11;;;;;;;84.93;37.80;;;5.60;51.70;;;;;;5013303;28;20026;-82
2021/01/12 12:03:37;;;;;;;74.68;36.25;;;5.60;51.60;;;;;;5012931;28;20018;-81
2021/01/12 12:06:03;;;;;;;80.25;35.65;;;5.50;51.50;;;;;;5013710;28;20498;-82
2021/01/12 12:08:29;;;;;;;74.50;36.28;;;5.50;51.70;;;;;;5012223;28;20398;-82
2021/01/12 12:11:01;;;;;;;72.53;34.72;;;5.40;51.70;;;;;;5021359;28;20100;-82
2021/01/12 12:13:26;;;;;;;75.72;34.40;;;5.40;51.90;;;;;;5013741;28;20080;-82
2021/01/12 12:15:52;;;;;;;80.85;38.58;;;5.40;52.20;;;;;;5013329;28;20026;-82
2021/01/12 12:18:18;;;;;;;83.40;39.33;;;5.30;52.40;;;;;;5013357;28;20029;-82
2021/01/12 12:20:44;;;;;;;103.55;42.83;;;5.30;52.70;;;;;;5011345;28;20061;-81
2021/01/12 12:23:10;;;;;;;98.70;42.05;;;5.30;53.00;;;;;;5012110;28;20029;-82
2021/01/12 12:25:35;;;;;;;92.30;41.70;;;5.30;53.20;;;;;;5012527;28;20391;-82
2021/01/12 12:28:01;;;;;;;98.32;43.00;;;5.30;53.40;;;;;;5011924;28;20029;-82
2021/01/12 12:30:27;;;;;;;86.97;39.53;;;5.30;53.20;;;;;;5012131;28;20041;-82
2021/01/12 12:32:52;;;;;;;94.65;40.05;;;5.30;53.30;;;;;;5013152;28;20028;-81
2021/01/12 12:35:19;;;;;;;83.47;37.95;;;5.30;53.50;;;;;;5012817;28;20105;-80
2021/01/12 12:37:44;;;;;;;76.25;35.03;;;5.30;53.80;;;;;;5010340;28;20030;-81
2021/01/12 12:40:12;;;;;;;76.47;33.88;;;5.30;54.10;;;;;;5011231;28;20056;-81
2021/01/12 12:42:38;;;;;;;69.57;33.03;;;5.30;54.00;;;;;;5013375;28;20187;-81
2021/01/12 12:45:05;;;;;;;69.07;32.00;;;5.30;54.40;;;;;;5013452;28;20093;-81